Time;durP1;ratioP1;P1;durP2;ratioP2;P2;SDS_P1;SDS_P2;PMS_P1;PMS_P2;Temp;Humidity;BMP_temperature;BMP_pressure;BME280_temperature;BME280_humidity;BME280_pressure;Samples;Min_cycle;Max_cycle;Signal;HPM_P1;HPM_P2
2023/05/19 00:00:20;;;;;;;;;;;11.40;98.00;;;;;;5022779;28;19909;-81
2023/05/19 00:02:46;;;;;;;;;;;11.40;98.20;;;;;;5022434;28;19916;-78
2023/05/19 00:05:13;;;;;;;;;;;11.50;97.90;;;;;;5019248;28;20314;-79
2023/05/19 00:07:40;;;;;;;;;;;11.50;97.90;;;;;;5021171;28;20387;-79
2023/05/19 00:10:06;;;;;;;;;;;11.50;97.60;;;;;;5032616;28;19937;-78
2023/05/19 00:12:31;;;;;;;;;;;11.50;97.60;;;;;;5038350;28;20302;-79
2023/05/19 00:14:57;;;;;;;;;;;11.60;97.30;;;;;;5022130;28;19925;-79
2023/05/19 00:17:23;;;;;;;;;;;11.50;97.20;;;;;;5032580;28;20365;-79
2023/05/19 00:19:48;;;;;;;;;;;11.60;97.20;;;;;;5030038;28;20359;-78
2023/05/19 00:22:14;;;;;;;;;;;11.70;96.90;;;;;;5029586;28;19919;-78
2023/05/19 00:24:40;;;;;;;;;;;11.70;96.60;;;;;;5030662;28;19917;-79
2023/05/19 00:27:05;;;;;;;;;;;11.70;96.50;;;;;;5030569;28;19992;-79
2023/05/19 00:29:31;;;;;;;;;;;11.60;96.70;;;;;;5029783;28;20358;-79
2023/05/19 00:31:56;;;;;;;;;;;11.60;96.80;;;;;;5041613;28;19909;-79
2023/05/19 00:34:22;;;;;;;;;;;11.70;96.70;;;;;;5030878;28;19909;-79
2023/05/19 00:36:47;;;;;;;;;;;11.60;96.50;;;;;;5030553;28;19939;-79
2023/05/19 00:39:13;;;;;;;;;;;11.60;96.60;;;;;;5026655;28;19909;-79
2023/05/19 00:41:38;;;;;;;;;;;11.50;96.80;;;;;;5030731;28;19909;-79
2023/05/19 00:44:05;;;;;;;;;;;11.50;97.10;;;;;;5030379;28;20446;-79
2023/05/19 00:46:31;;;;;;;;;;;11.50;97.30;;;;;;5025968;28;19987;-79
2023/05/19 00:48:56;;;;;;;;;;;11.50;97.40;;;;;;5026795;28;19996;-79
2023/05/19 00:51:24;;;;;;;;;;;11.40;97.60;;;;;;5032137;28;19909;-79
2023/05/19 00:53:51;;;;;;;;;;;11.40;97.80;;;;;;5018101;28;19941;-79
2023/05/19 00:56:17;;;;;;;;;;;11.30;97.90;;;;;;5030881;28;20329;-79
2023/05/19 00:58:43;;;;;;;;;;;11.40;98.10;;;;;;5025806;28;19913;-78
2023/05/19 01:01:08;;;;;;;;;;;11.40;98.00;;;;;;5026476;28;20307;-79
2023/05/19 01:03:34;;;;;;;;;;;11.50;97.70;;;;;;5020021;28;19925;-79
2023/05/19 01:06:03;;;;;;;;;;;11.50;97.70;;;;;;5033096;28;19952;-79
2023/05/19 01:08:30;;;;;;;;;;;11.40;97.70;;;;;;5023739;28;20714;-79
2023/05/19 01:10:56;;;;;;;;;;;11.20;98.30;;;;;;5034754;28;19909;-78
2023/05/19 01:13:21;;;;;;;;;;;11.10;98.50;;;;;;5037026;28;20073;-78
2023/05/19 01:16:02;;;;;;;;;;;11.00;98.50;;;;;;5028911;28;20350;-79
2023/05/19 01:18:46;;;;;;;;;;;10.90;98.50;;;;;;5025152;28;20535;-79
2023/05/19 01:21:21;;;;;;;;;;;10.90;98.50;;;;;;5032196;28;19908;-79
2023/05/19 01:24:05;;;;;;;;;;;10.90;98.50;;;;;;5030758;28;19964;-79
2023/05/19 01:26:58;;;;;;;;;;;10.90;98.50;;;;;;5026227;28;19935;-78
2023/05/19 01:29:35;;;;;;;;;;;10.80;98.50;;;;;;5027995;28;19915;-78
2023/05/19 01:32:03;;;;;;;;;;;10.80;98.50;;;;;;5030405;28;20131;-78
2023/05/19 01:34:30;;;;;;;;;;;10.70;98.50;;;;;;5027692;28;19913;-79
2023/05/19 01:36:57;;;;;;;;;;;10.70;98.50;;;;;;5033083;28;20687;-79
2023/05/19 01:39:23;;;;;;;;;;;10.70;98.50;;;;;;5025864;28;20383;-79
2023/05/19 01:41:49;;;;;;;;;;;10.70;98.50;;;;;;5034848;28;19913;-79
2023/05/19 01:44:15;;;;;;;;;;;10.60;98.50;;;;;;5020159;28;20011;-79
2023/05/19 01:46:41;;;;;;;;;;;10.70;98.50;;;;;;5028737;28;20016;-79
2023/05/19 01:49:06;;;;;;;;;;;10.80;98.50;;;;;;5027840;28;20379;-80
2023/05/19 01:51:32;;;;;;;;;;;10.70;98.50;;;;;;5033187;28;19905;-79
2023/05/19 01:53:57;;;;;;;;;;;10.80;98.50;;;;;;5027317;28;20002;-79
2023/05/19 01:56:33;;;;;;;;;;;10.70;98.50;;;;;;5034027;28;19905;-79
2023/05/19 01:59:03;;;;;;;;;;;10.60;98.50;;;;;;5026902;28;19913;-79
2023/05/19 02:01:33;;;;;;;;;;;10.60;98.50;;;;;;5028220;28;19933;-79
2023/05/19 02:04:13;;;;;;;;;;;10.50;98.50;;;;;;5028470;28;19968;-78
2023/05/19 02:06:47;;;;;;;;;;;10.50;98.50;;;;;;5029745;28;20397;-78
2023/05/19 02:09:24;;;;;;;;;;;10.50;98.50;;;;;;5029805;28;19905;-79
2023/05/19 02:11:53;;;;;;;;;;;10.40;98.50;;;;;;5027481;28;19905;-78
2023/05/19 02:14:19;;;;;;;;;;;10.40;98.50;;;;;;5031093;28;20490;-78
2023/05/19 02:16:46;;;;;;;;;;;10.40;98.50;;;;;;5032085;28;19909;-79
2023/05/19 02:19:18;;;;;;;;;;;10.40;98.50;;;;;;5030797;28;20353;-78
2023/05/19 02:21:44;;;;;;;;;;;10.40;98.50;;;;;;5039068;28;19908;-79
2023/05/19 02:24:10;;;;;;;;;;;10.30;98.50;;;;;;5030191;28;20541;-79
2023/05/19 02:26:35;;;;;;;;;;;10.30;98.50;;;;;;5029452;28;19970;-79
2023/05/19 02:29:01;;;;;;;;;;;10.40;98.50;;;;;;5027733;28;20365;-78
2023/05/19 02:31:26;;;;;;;;;;;10.40;98.50;;;;;;5036476;28;19916;-78
2023/05/19 02:33:52;;;;;;;;;;;10.30;98.50;;;;;;5024856;28;19913;-78
2023/05/19 02:36:17;;;;;;;;;;;10.30;98.50;;;;;;5023459;28;19963;-78
2023/05/19 02:38:43;;;;;;;;;;;10.30;98.50;;;;;;5032109;28;19921;-80
2023/05/19 02:41:09;;;;;;;;;;;10.20;98.50;;;;;;5028859;28;19913;-80
2023/05/19 02:43:35;;;;;;;;;;;10.20;98.50;;;;;;5027946;28;20390;-79
2023/05/19 02:46:00;;;;;;;;;;;10.20;98.50;;;;;;5030433;28;19975;-79
2023/05/19 02:48:26;;;;;;;;;;;10.30;98.50;;;;;;5027688;28;19917;-79
2023/05/19 02:50:52;;;;;;;;;;;10.30;98.50;;;;;;5033213;28;19909;-78
2023/05/19 02:53:17;;;;;;;;;;;10.20;98.50;;;;;;5029346;28;19917;-79
2023/05/19 02:55:43;;;;;;;;;;;10.20;98.50;;;;;;5026297;28;19909;-78
2023/05/19 02:58:08;;;;;;;;;;;10.20;98.50;;;;;;5029625;28;19916;-79
2023/05/19 03:00:34;;;;;;;;;;;10.20;98.50;;;;;;5025996;28;19913;-78
2023/05/19 03:03:01;;;;;;;;;;;10.20;98.50;;;;;;5027850;28;20371;-79
2023/05/19 03:05:28;;;;;;;;;;;10.30;98.50;;;;;;5027975;28;20417;-79
2023/05/19 03:07:54;;;;;;;;;;;10.30;98.50;;;;;;5029560;28;19966;-79
2023/05/19 03:10:20;;;;;;;;;;;10.30;98.50;;;;;;5030253;28;20678;-79
2023/05/19 03:12:45;;;;;;;;;;;10.30;98.50;;;;;;5032021;28;19913;-79
2023/05/19 03:15:12;;;;;;;;;;;10.20;98.50;;;;;;5028357;28;19905;-79
2023/05/19 03:17:38;;;;;;;;;;;10.20;98.50;;;;;;5033339;28;19917;-79
2023/05/19 03:20:04;;;;;;;;;;;10.20;98.50;;;;;;5020814;28;20646;-79
2023/05/19 03:22:31;;;;;;;;;;;10.20;98.50;;;;;;5016432;28;19913;-79
2023/05/19 03:24:57;;;;;;;;;;;10.30;98.50;;;;;;5029754;28;19928;-79
2023/05/19 03:27:23;;;;;;;;;;;10.30;98.50;;;;;;5017475;28;19914;-79
2023/05/19 03:29:48;;;;;;;;;;;10.40;98.50;;;;;;5026600;28;20020;-79
2023/05/19 03:32:14;;;;;;;;;;;10.40;98.50;;;;;;5031668;28;20004;-80
2023/05/19 03:34:39;;;;;;;;;;;10.40;98.50;;;;;;5027635;28;20341;-79
2023/05/19 03:37:05;;;;;;;;;;;10.30;98.50;;;;;;5036697;28;20019;-80
2023/05/19 03:39:30;;;;;;;;;;;10.40;98.50;;;;;;5026330;28;19909;-80
2023/05/19 03:41:56;;;;;;;;;;;10.40;98.50;;;;;;5030449;28;19909;-80
2023/05/19 03:44:21;;;;;;;;;;;10.40;98.50;;;;;;5033268;28;19917;-79
2023/05/19 03:46:47;;;;;;;;;;;10.40;98.50;;;;;;5027741;28;19909;-79
2023/05/19 03:49:13;;;;;;;;;;;10.50;98.50;;;;;;5025567;28;20008;-79
2023/05/19 03:51:39;;;;;;;;;;;10.40;98.50;;;;;;5023639;28;20428;-79
2023/05/19 03:54:05;;;;;;;;;;;10.60;98.50;;;;;;5025856;28;20309;-80
2023/05/19 03:56:31;;;;;;;;;;;10.60;98.50;;;;;;5021820;28;19913;-79
2023/05/19 03:58:57;;;;;;;;;;;10.60;98.50;;;;;;5026398;28;19917;-79
2023/05/19 04:01:22;;;;;;;;;;;10.60;98.50;;;;;;5028154;28;19909;-79
2023/05/19 04:03:48;;;;;;;;;;;10.70;98.50;;;;;;5025403;28;20401;-79
2023/05/19 04:06:13;;;;;;;;;;;10.70;98.50;;;;;;5034346;28;19999;-79
2023/05/19 04:08:39;;;;;;;;;;;10.80;98.50;;;;;;5029280;28;19916;-79
2023/05/19 04:11:05;;;;;;;;;;;10.90;98.50;;;;;;5027798;28;19913;-80
2023/05/19 04:13:33;;;;;;;;;;;10.90;98.50;;;;;;5020721;28;20378;-79
2023/05/19 04:15:59;;;;;;;;;;;11.00;98.50;;;;;;5034195;28;19930;-80
2023/05/19 04:18:24;;;;;;;;;;;11.00;98.50;;;;;;5030961;28;20442;-79
2023/05/19 04:20:50;;;;;;;;;;;11.10;98.50;;;;;;5032901;28;20327;-80
2023/05/19 04:23:16;;;;;;;;;;;11.10;98.50;;;;;;5027369;28;19913;-80
2023/05/19 04:25:41;;;;;;;;;;;11.20;98.50;;;;;;5030330;28;19955;-80
2023/05/19 04:28:07;;;;;;;;;;;11.30;98.50;;;;;;5033317;28;19971;-80
2023/05/19 04:30:33;;;;;;;;;;;11.40;98.50;;;;;;5031075;28;19909;-81
2023/05/19 04:32:59;;;;;;;;;;;11.50;98.40;;;;;;5035634;28;20387;-82
2023/05/19 04:35:26;;;;;;;;;;;11.60;97.90;;;;;;5033951;28;20379;-82
2023/05/19 04:37:53;;;;;;;;;;;11.60;97.70;;;;;;5024219;28;19917;-81
2023/05/19 04:40:19;;;;;;;;;;;11.70;97.50;;;;;;5028576;28;19909;-81
2023/05/19 04:42:45;;;;;;;;;;;11.70;97.30;;;;;;5028452;28;19966;-80
2023/05/19 04:45:12;;;;;;;;;;;11.80;97.20;;;;;;5033028;28;20007;-81
2023/05/19 04:47:39;;;;;;;;;;;11.80;97.00;;;;;;5032128;28;19909;-81
2023/05/19 04:50:06;;;;;;;;;;;11.70;97.10;;;;;;5032024;28;19909;-79
2023/05/19 04:52:32;;;;;;;;;;;11.70;97.20;;;;;;5032956;28;19917;-80
2023/05/19 04:54:58;;;;;;;;;;;11.70;97.30;;;;;;5032709;28;19943;-80
2023/05/19 04:57:23;;;;;;;;;;;11.70;97.50;;;;;;5033455;28;19967;-79
2023/05/19 04:59:49;;;;;;;;;;;11.70;97.30;;;;;;5031902;28;19909;-80
2023/05/19 05:02:14;;;;;;;;;;;11.70;97.50;;;;;;5026450;28;20460;-80
2023/05/19 05:04:42;;;;;;;;;;;11.70;97.50;;;;;;5027216;28;19925;-80
2023/05/19 05:07:09;;;;;;;;;;;11.70;97.50;;;;;;5024581;28;19959;-79
2023/05/19 05:09:34;;;;;;;;;;;11.80;97.70;;;;;;5030638;28;20464;-80
2023/05/19 05:12:01;;;;;;;;;;;11.90;97.70;;;;;;5021313;28;19920;-80
2023/05/19 05:14:26;;;;;;;;;;;12.00;97.50;;;;;;5031250;28;19932;-83
2023/05/19 05:16:52;;;;;;;;;;;12.10;96.70;;;;;;5048851;28;19905;-85
2023/05/19 05:19:17;;;;;;;;;;;12.00;96.80;;;;;;5029601;28;20386;-81
2023/05/19 05:21:43;;;;;;;;;;;12.00;97.10;;;;;;5026752;28;19909;-82
2023/05/19 05:24:09;;;;;;;;;;;12.00;97.20;;;;;;5034004;28;20307;-81
2023/05/19 05:26:35;;;;;;;;;;;12.00;96.90;;;;;;5033013;28;19986;-80
2023/05/19 05:29:01;;;;;;;;;;;12.00;97.30;;;;;;5030558;28;19983;-80
2023/05/19 05:31:27;;;;;;;;;;;12.00;97.20;;;;;;5030121;28;19932;-77
2023/05/19 05:33:53;;;;;;;;;;;12.10;97.00;;;;;;5029527;28;19909;-78
2023/05/19 05:36:18;;;;;;;;;;;12.10;97.00;;;;;;5027645;28;19927;-77
2023/05/19 05:38:44;;;;;;;;;;;12.20;97.00;;;;;;5028546;28;20409;-77
2023/05/19 05:41:09;;;;;;;;;;;12.20;96.80;;;;;;5028974;28;19909;-77
2023/05/19 05:43:35;;;;;;;;;;;12.30;96.30;;;;;;5028765;28;19917;-77
2023/05/19 05:46:01;;;;;;;;;;;12.40;96.20;;;;;;5021904;28;19913;-77
2023/05/19 05:48:26;;;;;;;;;;;12.40;95.70;;;;;;5023428;28;20601;-78
2023/05/19 05:50:53;;;;;;;;;;;12.50;95.70;;;;;;5027641;28;20000;-77
2023/05/19 05:53:19;;;;;;;;;;;12.60;95.60;;;;;;5027216;28;19905;-77
2023/05/19 05:55:45;;;;;;;;;;;12.70;95.70;;;;;;5027209;28;19905;-78
2023/05/19 05:58:11;;;;;;;;;;;12.60;95.30;;;;;;5021501;28;19917;-78
2023/05/19 06:00:37;;;;;;;;;;;12.70;95.50;;;;;;5023663;28;19916;-78
2023/05/19 06:03:03;;;;;;;;;;;12.70;95.70;;;;;;5027800;28;19913;-78
2023/05/19 06:05:29;;;;;;;;;;;12.90;95.90;;;;;;5022639;28;19924;-78
2023/05/19 06:07:54;;;;;;;;;;;13.00;95.50;;;;;;5028369;28;19916;-77
2023/05/19 06:10:20;;;;;;;;;;;13.10;95.40;;;;;;5029626;28;20004;-78
2023/05/19 06:12:45;;;;;;;;;;;13.10;94.50;;;;;;5029837;28;19967;-78
2023/05/19 06:15:11;;;;;;;;;;;13.20;94.20;;;;;;5025638;28;19971;-77
2023/05/19 06:17:36;;;;;;;;;;;13.20;94.80;;;;;;5026613;28;20379;-78
2023/05/19 06:20:04;;;;;;;;;;;13.30;94.20;;;;;;5028157;28;20008;-78
2023/05/19 06:22:30;;;;;;;;;;;13.40;93.90;;;;;;5032343;28;19921;-78
2023/05/19 06:24:55;;;;;;;;;;;13.50;93.80;;;;;;5026881;28;20379;-77
2023/05/19 06:27:21;;;;;;;;;;;13.50;93.20;;;;;;5029639;28;19911;-78
2023/05/19 06:29:46;;;;;;;;;;;13.60;91.60;;;;;;5021753;28;20000;-78
2023/05/19 06:32:12;;;;;;;;;;;13.60;92.00;;;;;;5028709;28;19905;-78
2023/05/19 06:34:39;;;;;;;;;;;13.60;92.30;;;;;;5026020;28;19909;-78
2023/05/19 06:37:04;;;;;;;;;;;13.70;91.90;;;;;;5024512;28;19920;-78
2023/05/19 06:39:30;;;;;;;;;;;13.90;92.20;;;;;;5022531;28;20430;-79
2023/05/19 06:41:56;;;;;;;;;;;14.00;92.10;;;;;;5025199;28;19909;-78
2023/05/19 06:44:21;;;;;;;;;;;14.10;91.90;;;;;;5028497;28;19929;-78
2023/05/19 06:46:47;;;;;;;;;;;14.30;91.30;;;;;;5024699;28;19978;-79
2023/05/19 06:49:12;;;;;;;;;;;14.40;91.10;;;;;;5028497;28;20400;-79
2023/05/19 06:51:38;;;;;;;;;;;14.50;91.10;;;;;;5027112;28;19966;-79
2023/05/19 06:54:03;;;;;;;;;;;14.60;90.80;;;;;;5026985;28;20003;-78
2023/05/19 06:56:29;;;;;;;;;;;14.70;90.30;;;;;;5028405;28;20401;-78
2023/05/19 06:58:54;;;;;;;;;;;14.70;89.40;;;;;;5030048;28;20404;-79
2023/05/19 07:01:20;;;;;;;;;;;14.80;89.00;;;;;;5026013;28;19920;-78
2023/05/19 07:03:46;;;;;;;;;;;14.90;90.10;;;;;;5025747;28;19921;-79
2023/05/19 07:06:12;;;;;;;;;;;15.00;87.50;;;;;;5025652;28;19909;-78
2023/05/19 07:08:37;;;;;;;;;;;15.00;87.60;;;;;;5028430;28;19932;-78
2023/05/19 07:11:03;;;;;;;;;;;15.20;88.30;;;;;;5027966;28;19905;-78
2023/05/19 07:13:28;;;;;;;;;;;15.20;85.80;;;;;;5027824;28;19909;-80
2023/05/19 07:15:57;;;;;;;;;;;15.30;85.80;;;;;;5024834;28;20654;-79
2023/05/19 07:18:22;;;;;;;;;;;15.40;86.70;;;;;;5021351;28;20279;-78
2023/05/19 07:20:48;;;;;;;;;;;15.50;86.20;;;;;;5024563;28;19955;-79
2023/05/19 07:23:13;;;;;;;;;;;15.70;85.70;;;;;;5029522;28;19928;-78
2023/05/19 07:25:39;;;;;;;;;;;15.80;85.50;;;;;;5022361;28;20383;-78
2023/05/19 07:28:04;;;;;;;;;;;15.90;85.00;;;;;;5033632;28;19909;-77
2023/05/19 07:30:30;;;;;;;;;;;16.10;83.40;;;;;;5030836;28;19913;-77
2023/05/19 07:32:56;;;;;;;;;;;16.20;85.80;;;;;;5032183;28;19913;-79
2023/05/19 07:35:21;;;;;;;;;;;16.30;84.10;;;;;;5028751;28;19909;-79
2023/05/19 07:37:48;;;;;;;;;;;16.30;82.70;;;;;;5033654;28;19974;-78
2023/05/19 07:40:13;;;;;;;;;;;16.50;83.10;;;;;;5032636;28;19909;-79
2023/05/19 07:42:39;;;;;;;;;;;16.60;81.90;;;;;;5033906;28;19931;-78
2023/05/19 07:45:05;;;;;;;;;;;16.70;81.70;;;;;;5028530;28;19987;-79
2023/05/19 07:47:30;;;;;;;;;;;16.80;81.10;;;;;;5032491;28;19913;-79
2023/05/19 07:49:56;;;;;;;;;;;17.00;80.30;;;;;;5025775;28;20311;-77
2023/05/19 07:52:21;;;;;;;;;;;17.10;81.30;;;;;;5020153;28;19913;-77
2023/05/19 07:54:47;;;;;;;;;;;17.30;80.50;;;;;;5033496;28;19931;-78
2023/05/19 07:57:13;;;;;;;;;;;17.50;80.10;;;;;;5033991;28;19904;-78
2023/05/19 07:59:39;;;;;;;;;;;17.60;79.80;;;;;;5032071;28;19908;-77
2023/05/19 08:02:04;;;;;;;;;;;17.70;78.70;;;;;;5033031;28;19905;-78
2023/05/19 08:04:30;;;;;;;;;;;17.70;79.00;;;;;;5029645;28;20037;-78
2023/05/19 08:06:55;;;;;;;;;;;17.90;79.20;;;;;;5037348;28;19909;-77
2023/05/19 08:09:21;;;;;;;;;;;17.90;79.90;;;;;;5031655;28;19905;-77
2023/05/19 08:11:47;;;;;;;;;;;17.90;77.70;;;;;;5029464;28;19905;-77
2023/05/19 08:14:12;;;;;;;;;;;18.10;79.10;;;;;;5033834;28;19971;-77
2023/05/19 08:16:40;;;;;;;;;;;18.10;78.00;;;;;;5027928;28;19905;-77
2023/05/19 08:19:06;;;;;;;;;;;18.10;77.50;;;;;;5034990;28;19917;-77
2023/05/19 08:21:35;;;;;;;;;;;18.10;79.30;;;;;;5030081;28;19962;-77
2023/05/19 08:24:00;;;;;;;;;;;18.20;79.00;;;;;;5022700;28;20360;-78
2023/05/19 08:26:26;;;;;;;;;;;18.20;79.70;;;;;;5023912;28;19909;-78
2023/05/19 08:28:52;;;;;;;;;;;18.30;78.90;;;;;;5026652;28;19905;-78
2023/05/19 08:31:18;;;;;;;;;;;18.40;78.50;;;;;;5027055;28;19917;-78
2023/05/19 08:33:44;;;;;;;;;;;18.50;79.00;;;;;;5029262;28;19909;-78
2023/05/19 08:36:10;;;;;;;;;;;18.60;78.00;;;;;;5026258;28;20564;-77
2023/05/19 08:38:35;;;;;;;;;;;18.70;77.70;;;;;;5026900;28;20003;-79
2023/05/19 08:41:01;;;;;;;;;;;18.80;78.00;;;;;;5030489;28;19917;-79
2023/05/19 08:43:26;;;;;;;;;;;18.80;76.60;;;;;;5032574;28;19908;-78
2023/05/19 08:45:52;;;;;;;;;;;18.90;77.40;;;;;;5029818;28;19917;-79
2023/05/19 08:48:19;;;;;;;;;;;19.00;76.70;;;;;;5022245;28;19915;-78
2023/05/19 08:50:52;;;;;;;;;;;19.10;77.20;;;;;;5030130;28;19967;-77
2023/05/19 08:53:27;;;;;;;;;;;19.20;76.70;;;;;;5038164;28;19963;-78
2023/05/19 08:55:57;;;;;;;;;;;19.30;76.30;;;;;;5025943;28;20663;-80
2023/05/19 08:58:23;;;;;;;;;;;19.40;76.10;;;;;;5028802;28;19996;-78
2023/05/19 09:00:49;;;;;;;;;;;19.50;76.70;;;;;;5026883;28;20008;-77
2023/05/19 09:03:16;;;;;;;;;;;19.60;75.90;;;;;;5020385;28;19909;-78
2023/05/19 09:05:41;;;;;;;;;;;19.70;76.60;;;;;;5027519;28;19917;-80
2023/05/19 09:08:07;;;;;;;;;;;19.70;76.50;;;;;;5029437;28;19905;-81
2023/05/19 09:10:33;;;;;;;;;;;19.90;76.30;;;;;;5028215;28;19990;-82
2023/05/19 09:12:59;;;;;;;;;;;20.00;76.80;;;;;;5023716;28;20605;-80
2023/05/19 09:15:27;;;;;;;;;;;20.10;76.40;;;;;;5026880;28;19995;-80
2023/05/19 09:18:04;;;;;;;;;;;20.10;75.90;;;;;;5026994;28;20010;-80
2023/05/19 09:20:30;;;;;;;;;;;20.20;75.90;;;;;;5024272;28;20031;-79
2023/05/19 09:22:57;;;;;;;;;;;20.30;76.60;;;;;;5026713;28;19912;-79
2023/05/19 09:25:23;;;;;;;;;;;20.40;75.60;;;;;;5027549;28;20310;-82
2023/05/19 09:27:49;;;;;;;;;;;20.40;74.20;;;;;;5023395;28;19916;-78
2023/05/19 09:30:15;;;;;;;;;;;20.50;75.00;;;;;;5029378;28;20007;-79
2023/05/19 09:32:41;;;;;;;;;;;20.50;74.90;;;;;;5028736;28;19992;-80
2023/05/19 09:35:07;;;;;;;;;;;20.60;74.60;;;;;;5028203;28;20046;-80
2023/05/19 09:37:32;;;;;;;;;;;20.70;74.90;;;;;;5028035;28;19920;-79
2023/05/19 09:39:58;;;;;;;;;;;20.90;73.80;;;;;;5028526;28;19974;-78
2023/05/19 09:42:25;;;;;;;;;;;21.00;74.00;;;;;;5029192;28;19911;-78
2023/05/19 09:45:00;;;;;;;;;;;21.20;73.50;;;;;;5022310;28;20314;-79
2023/05/19 09:47:26;;;;;;;;;;;21.40;74.10;;;;;;5025392;28;19935;-79
2023/05/19 09:49:52;;;;;;;;;;;21.60;72.80;;;;;;5027116;28;19913;-78
2023/05/19 09:52:18;;;;;;;;;;;21.60;70.70;;;;;;5017188;28;19924;-82
2023/05/19 09:54:43;;;;;;;;;;;21.70;72.60;;;;;;5031740;28;19913;-79
2023/05/19 09:57:09;;;;;;;;;;;21.90;70.50;;;;;;5026943;28;19935;-79
2023/05/19 09:59:37;;;;;;;;;;;22.00;70.00;;;;;;5032604;28;19974;-77
2023/05/19 10:02:03;;;;;;;;;;;22.20;71.90;;;;;;5027651;28;20006;-76
2023/05/19 10:04:29;;;;;;;;;;;22.50;71.10;;;;;;5021202;28;19916;-76
2023/05/19 10:06:58;;;;;;;;;;;22.80;68.80;;;;;;5029041;28;19908;-84
2023/05/19 10:09:27;;;;;;;;;;;23.20;67.30;;;;;;5028613;28;19966;-79
2023/05/19 10:11:53;;;;;;;;;;;23.80;66.90;;;;;;5027315;28;20356;-78
2023/05/19 10:14:22;;;;;;;;;;;24.20;65.90;;;;;;5022567;28;20520;-79
2023/05/19 10:16:49;;;;;;;;;;;24.50;65.90;;;;;;5025716;28;20382;-78
2023/05/19 10:19:15;;;;;;;;;;;24.80;63.30;;;;;;5025167;28;20399;-78
2023/05/19 10:21:41;;;;;;;;;;;25.00;65.10;;;;;;5029357;28;19913;-77
2023/05/19 10:24:06;;;;;;;;;;;25.20;64.00;;;;;;5025330;28;19998;-76
2023/05/19 10:26:33;;;;;;;;;;;25.30;62.40;;;;;;5025419;28;19971;-77
2023/05/19 10:28:59;;;;;;;;;;;25.40;61.60;;;;;;5028513;28;19940;-80
2023/05/19 10:31:25;;;;;;;;;;;25.80;62.60;;;;;;5027832;28;20329;-80
2023/05/19 10:34:14;;;;;;;;;;;26.50;60.90;;;;;;5027341;28;19963;-80
2023/05/19 10:36:53;;;;;;;;;;;27.00;59.60;;;;;;5022620;28;20374;-80
2023/05/19 10:39:24;;;;;;;;;;;27.10;58.90;;;;;;5026911;28;19913;-79
2023/05/19 10:41:58;;;;;;;;;;;27.00;58.10;;;;;;5028326;28;19913;-78
2023/05/19 10:44:23;;;;;;;;;;;27.10;56.30;;;;;;5022989;28;20417;-80
2023/05/19 10:46:49;;;;;;;;;;;27.10;55.60;;;;;;5024784;28;19956;-80
2023/05/19 10:49:21;;;;;;;;;;;27.40;57.20;;;;;;5029618;28;19909;-79
2023/05/19 10:51:47;;;;;;;;;;;27.90;57.40;;;;;;5025856;28;19960;-79
2023/05/19 10:54:15;;;;;;;;;;;28.40;55.70;;;;;;5028484;28;19943;-79
2023/05/19 10:56:42;;;;;;;;;;;29.00;54.90;;;;;;5027423;28;19909;-79
2023/05/19 10:59:28;;;;;;;;;;;29.70;53.50;;;;;;5021718;28;19913;-80
2023/05/19 11:01:53;;;;;;;;;;;30.30;52.10;;;;;;5028749;28;19920;-78
2023/05/19 11:04:37;;;;;;;;;;;31.10;50.90;;;;;;5032027;28;20501;-79
2023/05/19 11:07:03;;;;;;;;;;;31.40;50.20;;;;;;5037007;28;20409;-80
2023/05/19 11:09:32;;;;;;;;;;;31.40;50.10;;;;;;5031059;28;19909;-79
2023/05/19 11:12:02;;;;;;;;;;;31.20;49.60;;;;;;5031795;28;19927;-83
2023/05/19 11:14:27;;;;;;;;;;;30.80;50.50;;;;;;5029938;28;19916;-81
2023/05/19 11:16:56;;;;;;;;;;;30.60;53.10;;;;;;5031723;28;19909;-81
2023/05/19 11:19:25;;;;;;;;;;;30.40;53.30;;;;;;5033909;28;19909;-82
2023/05/19 11:21:53;;;;;;;;;;;30.20;53.10;;;;;;5033319;28;19913;-78
2023/05/19 11:24:38;;;;;;;;;;;30.40;52.00;;;;;;5031858;28;19998;-76
2023/05/19 11:27:20;;;;;;;;;;;30.80;50.40;;;;;;5027626;28;19958;-78
2023/05/19 11:29:48;;;;;;;;;;;30.70;50.30;;;;;;5026344;28;20524;-78
2023/05/19 11:32:14;;;;;;;;;;;30.50;50.60;;;;;;5029901;28;20365;-78
2023/05/19 11:34:40;;;;;;;;;;;30.30;51.30;;;;;;5036442;28;19996;-78
2023/05/19 11:37:07;;;;;;;;;;;30.10;51.90;;;;;;5034618;28;19928;-79
2023/05/19 11:39:33;;;;;;;;;;;29.70;51.30;;;;;;5033444;28;19935;-79
2023/05/19 11:41:59;;;;;;;;;;;29.10;52.70;;;;;;5032530;28;19909;-82
2023/05/19 11:44:25;;;;;;;;;;;28.60;53.40;;;;;;5025935;28;19917;-78
2023/05/19 11:46:50;;;;;;;;;;;28.10;53.80;;;;;;5026277;28;20301;-78
2023/05/19 11:49:16;;;;;;;;;;;27.70;54.60;;;;;;5028587;28;19920;-77
2023/05/19 11:51:45;;;;;;;;;;;27.40;55.60;;;;;;5021727;28;19909;-77
2023/05/19 11:54:11;;;;;;;;;;;26.80;56.50;;;;;;5028803;28;19917;-77
2023/05/19 11:56:40;;;;;;;;;;;26.00;58.20;;;;;;5031262;28;19908;-77
2023/05/19 11:59:06;;;;;;;;;;;24.90;61.00;;;;;;5028702;28;19913;-80
2023/05/19 12:01:32;;;;;;;;;;;23.60;62.40;;;;;;5028982;28;19979;-78
2023/05/19 12:03:57;;;;;;;;;;;22.50;65.90;;;;;;5029492;28;20445;-77
2023/05/19 12:06:24;;;;;;;;;;;21.90;66.70;;;;;;5025550;28;19913;-80
2023/05/19 12:08:50;;;;;;;;;;;21.50;69.50;;;;;;5025247;28;19913;-78
2023/05/19 12:11:17;;;;;;;;;;;21.00;71.90;;;;;;5025918;28;19919;-80
2023/05/19 12:13:42;;;;;;;;;;;20.50;71.70;;;;;;5030776;28;19995;-79
2023/05/19 12:16:08;;;;;;;;;;;20.00;74.00;;;;;;5029125;28;20000;-80
2023/05/19 12:18:37;;;;;;;;;;;19.30;76.30;;;;;;5029361;28;19909;-80
2023/05/19 12:21:03;;;;;;;;;;;18.80;77.40;;;;;;5028018;28;19917;-81
2023/05/19 12:23:29;;;;;;;;;;;18.40;79.00;;;;;;5029501;28;19945;-80
2023/05/19 12:25:56;;;;;;;;;;;17.90;79.90;;;;;;5030539;28;19925;-79
2023/05/19 12:28:21;;;;;;;;;;;17.40;82.60;;;;;;5029660;28;20384;-80
2023/05/19 12:30:51;;;;;;;;;;;17.10;82.90;;;;;;5024420;28;20020;-80
2023/05/19 12:33:18;;;;;;;;;;;16.90;82.90;;;;;;5029345;28;20426;-82
2023/05/19 12:35:44;;;;;;;;;;;16.50;83.00;;;;;;5031340;28;19979;-80
2023/05/19 12:38:10;;;;;;;;;;;16.50;84.00;;;;;;5029057;28;20028;-82
2023/05/19 12:40:36;;;;;;;;;;;16.40;84.10;;;;;;5026163;28;19995;-80
2023/05/19 12:43:02;;;;;;;;;;;16.40;84.50;;;;;;5032152;28;20006;-81
2023/05/19 12:45:32;;;;;;;;;;;16.40;83.80;;;;;;5031526;28;19917;-80
2023/05/19 12:47:58;;;;;;;;;;;16.50;82.90;;;;;;5029447;28;19970;-78
2023/05/19 12:50:30;;;;;;;;;;;16.70;82.20;;;;;;5027673;28;19909;-78
2023/05/19 12:52:57;;;;;;;;;;;17.10;81.80;;;;;;5025233;28;20450;-78
2023/05/19 12:55:23;;;;;;;;;;;17.50;79.80;;;;;;5028817;28;19909;-77
2023/05/19 12:57:58;;;;;;;;;;;17.70;77.80;;;;;;5031815;28;19904;-78
2023/05/19 13:00:26;;;;;;;;;;;17.70;77.70;;;;;;5031090;28;19909;-78
2023/05/19 13:03:03;;;;;;;;;;;17.80;76.80;;;;;;5030063;28;20337;-78
2023/05/19 13:05:29;;;;;;;;;;;18.00;76.70;;;;;;5029826;28;19940;-78
2023/05/19 13:07:56;;;;;;;;;;;18.00;76.10;;;;;;5025206;28;19905;-77
2023/05/19 13:10:21;;;;;;;;;;;18.10;75.80;;;;;;5029031;28;20378;-80
2023/05/19 13:12:47;;;;;;;;;;;18.20;74.80;;;;;;5027905;28;19912;-82
2023/05/19 13:15:12;;;;;;;;;;;18.20;74.20;;;;;;5025721;28;19909;-77
2023/05/19 13:17:38;;;;;;;;;;;18.30;74.50;;;;;;5029336;28;20610;-79
2023/05/19 13:20:04;;;;;;;;;;;18.50;74.20;;;;;;5029740;28;20378;-79
2023/05/19 13:22:30;;;;;;;;;;;18.60;74.30;;;;;;5051802;28;20681;-80
2023/05/19 13:24:57;;;;;;;;;;;18.70;73.40;;;;;;5030544;28;19923;-80
2023/05/19 13:27:23;;;;;;;;;;;18.90;72.80;;;;;;5028706;28;20330;-79
2023/05/19 13:29:49;;;;;;;;;;;19.10;72.10;;;;;;5023098;28;19909;-79
2023/05/19 13:32:14;;;;;;;;;;;19.30;72.00;;;;;;5025448;28;19947;-79
2023/05/19 13:34:40;;;;;;;;;;;19.50;70.00;;;;;;5030168;28;20356;-80
2023/05/19 13:37:08;;;;;;;;;;;19.60;68.60;;;;;;5029758;28;19917;-79
2023/05/19 13:39:34;;;;;;;;;;;19.90;70.00;;;;;;5034065;28;19909;-80
2023/05/19 13:41:59;;;;;;;;;;;20.10;68.90;;;;;;5029930;28;19916;-80
2023/05/19 13:44:25;;;;;;;;;;;20.30;69.50;;;;;;5030593;28;19959;-80
2023/05/19 13:46:50;;;;;;;;;;;20.50;69.50;;;;;;5029901;28;19913;-80
2023/05/19 13:49:16;;;;;;;;;;;20.50;67.10;;;;;;5028420;28;19917;-80
2023/05/19 13:51:42;;;;;;;;;;;20.60;67.80;;;;;;5029313;28;19912;-80
2023/05/19 13:54:07;;;;;;;;;;;20.80;67.70;;;;;;5026946;28;19909;-79
2023/05/19 13:56:33;;;;;;;;;;;20.90;67.10;;;;;;5029064;28;19913;-79
2023/05/19 13:58:59;;;;;;;;;;;20.90;65.60;;;;;;5029446;28;20291;-80
2023/05/19 14:01:24;;;;;;;;;;;20.80;66.40;;;;;;5029306;28;19916;-80
2023/05/19 14:03:50;;;;;;;;;;;20.80;66.70;;;;;;5037574;28;19913;-79
2023/05/19 14:06:15;;;;;;;;;;;20.90;66.60;;;;;;5031797;28;19918;-79
2023/05/19 14:08:41;;;;;;;;;;;21.00;66.40;;;;;;5034025;28;19909;-79
2023/05/19 14:11:07;;;;;;;;;;;21.20;67.00;;;;;;5025867;28;20394;-80
2023/05/19 14:13:33;;;;;;;;;;;21.70;66.90;;;;;;5033860;28;19916;-80